sensor_id;sensor_type;location;lat;lon;timestamp;P1;durP1;ratioP1;P2;durP2;ratioP2
55987;SDS011;67216;50.930;4.514;2023-02-17T00:00:11;11.70;;;9.65;;
55987;SDS011;67216;50.930;4.514;2023-02-17T00:02:40;11.05;;;8.60;;
55987;SDS011;67216;50.930;4.514;2023-02-17T00:05:08;12.35;;;9.32;;
55987;SDS011;67216;50.930;4.514;2023-02-17T00:07:34;10.00;;;8.77;;
55987;SDS011;67216;50.930;4.514;2023-02-17T00:09:59;12.48;;;9.95;;
55987;SDS011;67216;50.930;4.514;2023-02-17T00:12:25;11.25;;;9.30;;
55987;SDS011;67216;50.930;4.514;2023-02-17T00:14:51;11.43;;;9.38;;
55987;SDS011;67216;50.930;4.514;2023-02-17T00:17:17;13.10;;;8.77;;
55987;SDS011;67216;50.930;4.514;2023-02-17T00:19:43;10.93;;;9.13;;
55987;SDS011;67216;50.930;4.514;2023-02-17T00:22:09;11.00;;;9.10;;
55987;SDS011;67216;50.930;4.514;2023-02-17T00:24:38;11.48;;;9.75;;
55987;SDS011;67216;50.930;4.514;2023-02-17T00:27:05;11.05;;;9.00;;
55987;SDS011;67216;50.930;4.514;2023-02-17T00:29:31;11.18;;;9.98;;
55987;SDS011;67216;50.930;4.514;2023-02-17T00:31:57;11.82;;;9.50;;
55987;SDS011;67216;50.930;4.514;2023-02-17T00:34:24;11.23;;;9.40;;
55987;SDS011;67216;50.930;4.514;2023-02-17T00:36:53;13.93;;;8.43;;
55987;SDS011;67216;50.930;4.514;2023-02-17T00:39:21;13.85;;;9.50;;
55987;SDS011;67216;50.930;4.514;2023-02-17T00:41:47;10.85;;;8.45;;
55987;SDS011;67216;50.930;4.514;2023-02-17T00:44:16;10.48;;;9.38;;
55987;SDS011;67216;50.930;4.514;2023-02-17T00:46:46;10.15;;;8.75;;
55987;SDS011;67216;50.930;4.514;2023-02-17T00:49:14;9.30;;;8.05;;
55987;SDS011;67216;50.930;4.514;2023-02-17T00:51:41;8.60;;;7.50;;
55987;SDS011;67216;50.930;4.514;2023-02-17T00:54:10;8.52;;;7.10;;
55987;SDS011;67216;50.930;4.514;2023-02-17T00:56:35;9.30;;;7.45;;
55987;SDS011;67216;50.930;4.514;2023-02-17T00:59:02;10.23;;;7.88;;
55987;SDS011;67216;50.930;4.514;2023-02-17T01:01:29;9.80;;;8.48;;
55987;SDS011;67216;50.930;4.514;2023-02-17T01:03:55;9.35;;;7.75;;
55987;SDS011;67216;50.930;4.514;2023-02-17T01:06:22;10.70;;;8.63;;
55987;SDS011;67216;50.930;4.514;2023-02-17T01:08:52;10.60;;;8.80;;
55987;SDS011;67216;50.930;4.514;2023-02-17T01:11:19;11.80;;;9.10;;
55987;SDS011;67216;50.930;4.514;2023-02-17T01:13:46;10.65;;;9.07;;
55987;SDS011;67216;50.930;4.514;2023-02-17T01:16:20;11.25;;;9.13;;
55987;SDS011;67216;50.930;4.514;2023-02-17T01:18:46;11.30;;;10.18;;
55987;SDS011;67216;50.930;4.514;2023-02-17T01:21:16;11.75;;;10.27;;
55987;SDS011;67216;50.930;4.514;2023-02-17T01:23:43;12.07;;;9.95;;
55987;SDS011;67216;50.930;4.514;2023-02-17T01:26:14;14.57;;;9.77;;
55987;SDS011;67216;50.930;4.514;2023-02-17T01:28:41;9.80;;;8.55;;
55987;SDS011;67216;50.930;4.514;2023-02-17T01:31:07;11.88;;;9.50;;
55987;SDS011;67216;50.930;4.514;2023-02-17T01:33:36;12.15;;;9.43;;
55987;SDS011;67216;50.930;4.514;2023-02-17T01:36:04;10.88;;;8.98;;
55987;SDS011;67216;50.930;4.514;2023-02-17T01:38:34;10.68;;;9.32;;
55987;SDS011;67216;50.930;4.514;2023-02-17T01:41:01;11.88;;;7.90;;
55987;SDS011;67216;50.930;4.514;2023-02-17T01:43:28;10.27;;;7.22;;
55987;SDS011;67216;50.930;4.514;2023-02-17T01:45:55;9.00;;;6.93;;
55987;SDS011;67216;50.930;4.514;2023-02-17T01:53:36;9.43;;;7.38;;
55987;SDS011;67216;50.930;4.514;2023-02-17T01:56:16;11.40;;;7.75;;
55987;SDS011;67216;50.930;4.514;2023-02-17T01:58:48;12.35;;;8.68;;
55987;SDS011;67216;50.930;4.514;2023-02-17T02:01:23;13.00;;;9.65;;
55987;SDS011;67216;50.930;4.514;2023-02-17T02:03:49;13.23;;;10.43;;
55987;SDS011;67216;50.930;4.514;2023-02-17T02:06:19;11.90;;;10.02;;
55987;SDS011;67216;50.930;4.514;2023-02-17T02:08:53;14.55;;;10.18;;
55987;SDS011;67216;50.930;4.514;2023-02-17T02:11:28;16.75;;;11.38;;
55987;SDS011;67216;50.930;4.514;2023-02-17T02:13:54;14.80;;;10.50;;
55987;SDS011;67216;50.930;4.514;2023-02-17T02:16:26;14.43;;;11.15;;
55987;SDS011;67216;50.930;4.514;2023-02-17T02:19:02;16.40;;;11.75;;
55987;SDS011;67216;50.930;4.514;2023-02-17T02:22:22;13.85;;;10.35;;
55987;SDS011;67216;50.930;4.514;2023-02-17T02:33:14;17.63;;;10.60;;
55987;SDS011;67216;50.930;4.514;2023-02-17T02:41:04;17.25;;;10.82;;
55987;SDS011;67216;50.930;4.514;2023-02-17T02:43:43;18.90;;;10.88;;
55987;SDS011;67216;50.930;4.514;2023-02-17T02:46:10;18.45;;;9.82;;
55987;SDS011;67216;50.930;4.514;2023-02-17T02:48:36;12.77;;;9.48;;
55987;SDS011;67216;50.930;4.514;2023-02-17T02:57:02;16.60;;;8.93;;
55987;SDS011;67216;50.930;4.514;2023-02-17T03:02:21;16.45;;;9.60;;
55987;SDS011;67216;50.930;4.514;2023-02-17T03:10:13;11.73;;;8.68;;
55987;SDS011;67216;50.930;4.514;2023-02-17T03:12:39;12.10;;;8.30;;
55987;SDS011;67216;50.930;4.514;2023-02-17T03:15:08;12.48;;;8.35;;
55987;SDS011;67216;50.930;4.514;2023-02-17T03:17:59;15.70;;;8.95;;
55987;SDS011;67216;50.930;4.514;2023-02-17T03:20:27;12.77;;;8.75;;
55987;SDS011;67216;50.930;4.514;2023-02-17T03:22:56;13.50;;;8.38;;
55987;SDS011;67216;50.930;4.514;2023-02-17T03:25:23;12.82;;;8.88;;
55987;SDS011;67216;50.930;4.514;2023-02-17T03:27:49;12.98;;;8.60;;
55987;SDS011;67216;50.930;4.514;2023-02-17T03:30:14;14.77;;;8.90;;
55987;SDS011;67216;50.930;4.514;2023-02-17T03:32:41;14.23;;;8.93;;
55987;SDS011;67216;50.930;4.514;2023-02-17T03:35:09;15.23;;;10.02;;
55987;SDS011;67216;50.930;4.514;2023-02-17T03:37:35;13.40;;;9.38;;
55987;SDS011;67216;50.930;4.514;2023-02-17T03:40:01;12.35;;;9.27;;
55987;SDS011;67216;50.930;4.514;2023-02-17T03:42:29;13.90;;;9.70;;
55987;SDS011;67216;50.930;4.514;2023-02-17T03:44:56;12.90;;;8.98;;
55987;SDS011;67216;50.930;4.514;2023-02-17T03:47:24;14.00;;;9.57;;
55987;SDS011;67216;50.930;4.514;2023-02-17T03:49:50;13.68;;;8.68;;
55987;SDS011;67216;50.930;4.514;2023-02-17T03:52:16;13.13;;;8.95;;
55987;SDS011;67216;50.930;4.514;2023-02-17T03:54:42;13.85;;;9.05;;
55987;SDS011;67216;50.930;4.514;2023-02-17T03:57:11;13.38;;;8.80;;
55987;SDS011;67216;50.930;4.514;2023-02-17T03:59:39;12.38;;;8.35;;
55987;SDS011;67216;50.930;4.514;2023-02-17T04:02:05;14.98;;;9.00;;
55987;SDS011;67216;50.930;4.514;2023-02-17T04:04:31;14.50;;;8.38;;
55987;SDS011;67216;50.930;4.514;2023-02-17T04:06:56;13.77;;;8.82;;
55987;SDS011;67216;50.930;4.514;2023-02-17T04:09:22;13.60;;;8.75;;
55987;SDS011;67216;50.930;4.514;2023-02-17T04:11:48;12.55;;;8.52;;
55987;SDS011;67216;50.930;4.514;2023-02-17T04:14:16;11.65;;;7.78;;
55987;SDS011;67216;50.930;4.514;2023-02-17T04:16:42;12.95;;;8.20;;
55987;SDS011;67216;50.930;4.514;2023-02-17T04:19:07;14.00;;;7.63;;
55987;SDS011;67216;50.930;4.514;2023-02-17T04:21:33;16.10;;;8.50;;
55987;SDS011;67216;50.930;4.514;2023-02-17T04:23:59;10.98;;;7.93;;
55987;SDS011;67216;50.930;4.514;2023-02-17T04:26:26;10.38;;;7.90;;
55987;SDS011;67216;50.930;4.514;2023-02-17T04:28:55;14.00;;;8.20;;
55987;SDS011;67216;50.930;4.514;2023-02-17T04:31:20;11.95;;;7.45;;
55987;SDS011;67216;50.930;4.514;2023-02-17T04:33:46;12.60;;;7.97;;
55987;SDS011;67216;50.930;4.514;2023-02-17T04:36:12;11.85;;;7.63;;
55987;SDS011;67216;50.930;4.514;2023-02-17T04:38:38;12.25;;;7.68;;
55987;SDS011;67216;50.930;4.514;2023-02-17T04:41:04;12.95;;;7.88;;
55987;SDS011;67216;50.930;4.514;2023-02-17T04:43:33;11.35;;;7.93;;
55987;SDS011;67216;50.930;4.514;2023-02-17T04:45:58;11.57;;;7.28;;
55987;SDS011;67216;50.930;4.514;2023-02-17T04:48:25;11.18;;;7.75;;
55987;SDS011;67216;50.930;4.514;2023-02-17T04:50:51;10.23;;;7.50;;
55987;SDS011;67216;50.930;4.514;2023-02-17T04:53:17;13.02;;;7.53;;
55987;SDS011;67216;50.930;4.514;2023-02-17T04:55:43;11.55;;;7.00;;
55987;SDS011;67216;50.930;4.514;2023-02-17T04:58:13;11.27;;;7.43;;
55987;SDS011;67216;50.930;4.514;2023-02-17T05:00:38;11.82;;;7.78;;
55987;SDS011;67216;50.930;4.514;2023-02-17T05:03:07;10.77;;;7.50;;
55987;SDS011;67216;50.930;4.514;2023-02-17T05:05:33;10.20;;;7.32;;
55987;SDS011;67216;50.930;4.514;2023-02-17T05:07:59;11.05;;;7.10;;
55987;SDS011;67216;50.930;4.514;2023-02-17T05:10:25;12.35;;;7.45;;
55987;SDS011;67216;50.930;4.514;2023-02-17T05:12:51;9.45;;;6.95;;
55987;SDS011;67216;50.930;4.514;2023-02-17T05:15:16;12.65;;;7.45;;
55987;SDS011;67216;50.930;4.514;2023-02-17T05:17:42;12.73;;;8.05;;
55987;SDS011;67216;50.930;4.514;2023-02-17T05:20:08;16.25;;;7.70;;
55987;SDS011;67216;50.930;4.514;2023-02-17T05:22:35;10.07;;;7.10;;
55987;SDS011;67216;50.930;4.514;2023-02-17T05:25:04;12.65;;;7.57;;
55987;SDS011;67216;50.930;4.514;2023-02-17T05:27:30;12.50;;;7.72;;
55987;SDS011;67216;50.930;4.514;2023-02-17T05:29:56;14.35;;;8.18;;
55987;SDS011;67216;50.930;4.514;2023-02-17T05:32:24;12.40;;;7.82;;
55987;SDS011;67216;50.930;4.514;2023-02-17T05:34:53;12.30;;;7.43;;
55987;SDS011;67216;50.930;4.514;2023-02-17T05:37:21;12.98;;;8.02;;
55987;SDS011;67216;50.930;4.514;2023-02-17T05:39:50;13.83;;;7.23;;
55987;SDS011;67216;50.930;4.514;2023-02-17T05:42:16;11.95;;;6.15;;
55987;SDS011;67216;50.930;4.514;2023-02-17T05:44:42;12.45;;;7.50;;
55987;SDS011;67216;50.930;4.514;2023-02-17T05:47:10;12.38;;;7.85;;
55987;SDS011;67216;50.930;4.514;2023-02-17T05:49:38;10.68;;;7.20;;
55987;SDS011;67216;50.930;4.514;2023-02-17T05:52:04;13.02;;;7.25;;
55987;SDS011;67216;50.930;4.514;2023-02-17T05:54:30;12.00;;;7.82;;
55987;SDS011;67216;50.930;4.514;2023-02-17T05:56:56;12.25;;;7.28;;
55987;SDS011;67216;50.930;4.514;2023-02-17T05:59:21;12.32;;;7.40;;
55987;SDS011;67216;50.930;4.514;2023-02-17T06:01:50;11.32;;;7.72;;
55987;SDS011;67216;50.930;4.514;2023-02-17T06:04:16;14.15;;;7.95;;
55987;SDS011;67216;50.930;4.514;2023-02-17T06:06:43;11.20;;;7.68;;
55987;SDS011;67216;50.930;4.514;2023-02-17T06:09:09;11.70;;;8.32;;
55987;SDS011;67216;50.930;4.514;2023-02-17T06:11:34;12.38;;;7.97;;
55987;SDS011;67216;50.930;4.514;2023-02-17T06:14:00;14.80;;;8.73;;
55987;SDS011;67216;50.930;4.514;2023-02-17T06:16:26;13.07;;;9.05;;
55987;SDS011;67216;50.930;4.514;2023-02-17T06:18:52;16.02;;;9.43;;
55987;SDS011;67216;50.930;4.514;2023-02-17T06:21:21;11.88;;;8.50;;
55987;SDS011;67216;50.930;4.514;2023-02-17T06:23:49;13.93;;;9.13;;
55987;SDS011;67216;50.930;4.514;2023-02-17T06:26:16;14.27;;;9.77;;
55987;SDS011;67216;50.930;4.514;2023-02-17T06:28:43;12.55;;;9.07;;
55987;SDS011;67216;50.930;4.514;2023-02-17T06:31:13;13.23;;;9.40;;
55987;SDS011;67216;50.930;4.514;2023-02-17T06:33:39;13.53;;;8.50;;
55987;SDS011;67216;50.930;4.514;2023-02-17T06:36:05;13.68;;;9.85;;
55987;SDS011;67216;50.930;4.514;2023-02-17T06:38:37;13.90;;;9.40;;
55987;SDS011;67216;50.930;4.514;2023-02-17T06:41:02;14.25;;;10.02;;
55987;SDS011;67216;50.930;4.514;2023-02-17T06:43:28;14.13;;;9.55;;
55987;SDS011;67216;50.930;4.514;2023-02-17T06:45:54;16.08;;;10.90;;
55987;SDS011;67216;50.930;4.514;2023-02-17T06:48:20;17.77;;;10.85;;
55987;SDS011;67216;50.930;4.514;2023-02-17T06:50:48;14.98;;;10.07;;
55987;SDS011;67216;50.930;4.514;2023-02-17T06:53:16;15.70;;;11.18;;
55987;SDS011;67216;50.930;4.514;2023-02-17T06:55:42;20.13;;;10.85;;
55987;SDS011;67216;50.930;4.514;2023-02-17T06:58:09;16.20;;;10.35;;
55987;SDS011;67216;50.930;4.514;2023-02-17T07:00:34;15.13;;;10.35;;
55987;SDS011;67216;50.930;4.514;2023-02-17T07:03:00;15.73;;;10.80;;
55987;SDS011;67216;50.930;4.514;2023-02-17T07:05:26;17.45;;;10.63;;
55987;SDS011;67216;50.930;4.514;2023-02-17T07:07:52;17.13;;;10.45;;
55987;SDS011;67216;50.930;4.514;2023-02-17T07:10:23;14.73;;;9.93;;
55987;SDS011;67216;50.930;4.514;2023-02-17T07:12:49;14.38;;;10.15;;
55987;SDS011;67216;50.930;4.514;2023-02-17T07:15:18;15.68;;;10.13;;
55987;SDS011;67216;50.930;4.514;2023-02-17T07:17:44;15.65;;;9.40;;
55987;SDS011;67216;50.930;4.514;2023-02-17T07:20:10;17.75;;;11.32;;
55987;SDS011;67216;50.930;4.514;2023-02-17T07:22:36;14.80;;;10.45;;
55987;SDS011;67216;50.930;4.514;2023-02-17T07:25:02;16.33;;;10.70;;
55987;SDS011;67216;50.930;4.514;2023-02-17T07:27:29;15.55;;;10.93;;
55987;SDS011;67216;50.930;4.514;2023-02-17T07:29:55;13.05;;;10.20;;
55987;SDS011;67216;50.930;4.514;2023-02-17T07:32:24;14.75;;;10.13;;
55987;SDS011;67216;50.930;4.514;2023-02-17T07:34:50;14.95;;;9.55;;
55987;SDS011;67216;50.930;4.514;2023-02-17T07:37:16;14.88;;;10.07;;
55987;SDS011;67216;50.930;4.514;2023-02-17T07:39:44;15.52;;;9.75;;
55987;SDS011;67216;50.930;4.514;2023-02-17T07:42:09;15.73;;;9.57;;
55987;SDS011;67216;50.930;4.514;2023-02-17T07:44:35;13.13;;;9.75;;
55987;SDS011;67216;50.930;4.514;2023-02-17T07:47:03;14.40;;;10.18;;
55987;SDS011;67216;50.930;4.514;2023-02-17T07:49:29;14.02;;;9.82;;
55987;SDS011;67216;50.930;4.514;2023-02-17T07:51:55;12.75;;;9.60;;
55987;SDS011;67216;50.930;4.514;2023-02-17T07:54:21;18.08;;;9.80;;
55987;SDS011;67216;50.930;4.514;2023-02-17T07:56:47;13.20;;;10.23;;
55987;SDS011;67216;50.930;4.514;2023-02-17T07:59:13;13.55;;;9.63;;
55987;SDS011;67216;50.930;4.514;2023-02-17T08:01:39;14.23;;;10.07;;
55987;SDS011;67216;50.930;4.514;2023-02-17T08:04:06;16.50;;;10.20;;
55987;SDS011;67216;50.930;4.514;2023-02-17T08:06:31;13.52;;;9.45;;
55987;SDS011;67216;50.930;4.514;2023-02-17T08:08:57;13.75;;;9.90;;
55987;SDS011;67216;50.930;4.514;2023-02-17T08:11:41;13.73;;;10.05;;
55987;SDS011;67216;50.930;4.514;2023-02-17T08:14:27;13.02;;;9.23;;
55987;SDS011;67216;50.930;4.514;2023-02-17T08:16:57;13.57;;;8.50;;
55987;SDS011;67216;50.930;4.514;2023-02-17T08:19:25;12.00;;;9.45;;
55987;SDS011;67216;50.930;4.514;2023-02-17T08:21:51;12.00;;;8.65;;
55987;SDS011;67216;50.930;4.514;2023-02-17T08:24:20;12.95;;;8.82;;
55987;SDS011;67216;50.930;4.514;2023-02-17T08:26:48;13.05;;;8.57;;
55987;SDS011;67216;50.930;4.514;2023-02-17T08:29:14;11.82;;;8.10;;
55987;SDS011;67216;50.930;4.514;2023-02-17T08:31:41;9.95;;;7.82;;
55987;SDS011;67216;50.930;4.514;2023-02-17T08:34:12;10.38;;;7.75;;
55987;SDS011;67216;50.930;4.514;2023-02-17T08:36:38;11.43;;;7.43;;
55987;SDS011;67216;50.930;4.514;2023-02-17T08:39:12;9.18;;;6.97;;
55987;SDS011;67216;50.930;4.514;2023-02-17T08:41:40;9.52;;;6.53;;
55987;SDS011;67216;50.930;4.514;2023-02-17T08:44:07;9.35;;;6.72;;
55987;SDS011;67216;50.930;4.514;2023-02-17T08:46:38;8.77;;;5.68;;
55987;SDS011;67216;50.930;4.514;2023-02-17T08:49:07;8.40;;;6.55;;
55987;SDS011;67216;50.930;4.514;2023-02-17T08:51:33;10.80;;;6.40;;
55987;SDS011;67216;50.930;4.514;2023-02-17T08:53:59;8.13;;;6.10;;
55987;SDS011;67216;50.930;4.514;2023-02-17T08:56:26;8.88;;;5.07;;
55987;SDS011;67216;50.930;4.514;2023-02-17T08:58:56;8.27;;;5.60;;
55987;SDS011;67216;50.930;4.514;2023-02-17T09:01:27;7.03;;;5.60;;
55987;SDS011;67216;50.930;4.514;2023-02-17T09:03:53;8.02;;;5.40;;
55987;SDS011;67216;50.930;4.514;2023-02-17T09:06:30;7.55;;;4.70;;
55987;SDS011;67216;50.930;4.514;2023-02-17T09:09:06;6.75;;;4.63;;
55987;SDS011;67216;50.930;4.514;2023-02-17T09:11:35;8.32;;;4.40;;
55987;SDS011;67216;50.930;4.514;2023-02-17T09:14:01;5.38;;;4.13;;
55987;SDS011;67216;50.930;4.514;2023-02-17T09:16:29;5.28;;;4.43;;
55987;SDS011;67216;50.930;4.514;2023-02-17T09:19:00;5.82;;;4.05;;
55987;SDS011;67216;50.930;4.514;2023-02-17T09:21:28;4.30;;;3.72;;
55987;SDS011;67216;50.930;4.514;2023-02-17T09:23:59;6.90;;;3.50;;
55987;SDS011;67216;50.930;4.514;2023-02-17T09:26:27;4.40;;;3.63;;
55987;SDS011;67216;50.930;4.514;2023-02-17T09:28:55;5.10;;;3.47;;
55987;SDS011;67216;50.930;4.514;2023-02-17T09:31:23;5.43;;;3.50;;
55987;SDS011;67216;50.930;4.514;2023-02-17T09:33:50;5.07;;;3.50;;
55987;SDS011;67216;50.930;4.514;2023-02-17T09:36:18;5.50;;;3.50;;
55987;SDS011;67216;50.930;4.514;2023-02-17T09:38:48;3.78;;;2.70;;
55987;SDS011;67216;50.930;4.514;2023-02-17T09:43:55;4.03;;;2.80;;
55987;SDS011;67216;50.930;4.514;2023-02-17T09:46:31;3.77;;;2.70;;
55987;SDS011;67216;50.930;4.514;2023-02-17T09:49:05;4.95;;;2.60;;
55987;SDS011;67216;50.930;4.514;2023-02-17T09:51:34;4.70;;;2.88;;
55987;SDS011;67216;50.930;4.514;2023-02-17T09:54:11;4.50;;;3.33;;
55987;SDS011;67216;50.930;4.514;2023-02-17T09:59:19;5.03;;;2.67;;
55987;SDS011;67216;50.930;4.514;2023-02-17T10:01:53;3.65;;;2.88;;
55987;SDS011;67216;50.930;4.514;2023-02-17T10:04:29;4.53;;;2.58;;
55987;SDS011;67216;50.930;4.514;2023-02-17T10:07:06;3.30;;;2.30;;
55987;SDS011;67216;50.930;4.514;2023-02-17T10:10:05;2.83;;;2.10;;
55987;SDS011;67216;50.930;4.514;2023-02-17T10:12:36;3.97;;;2.00;;
55987;SDS011;67216;50.930;4.514;2023-02-17T10:15:09;3.85;;;1.80;;
55987;SDS011;67216;50.930;4.514;2023-02-17T10:20:32;3.75;;;2.10;;
55987;SDS011;67216;50.930;4.514;2023-02-17T10:23:25;6.10;;;1.83;;
55987;SDS011;67216;50.930;4.514;2023-02-17T10:26:04;5.15;;;1.80;;
55987;SDS011;67216;50.930;4.514;2023-02-17T10:31:22;2.75;;;2.10;;
55987;SDS011;67216;50.930;4.514;2023-02-17T10:34:11;6.20;;;2.65;;
55987;SDS011;67216;50.930;4.514;2023-02-17T10:42:19;3.67;;;2.00;;
55987;SDS011;67216;50.930;4.514;2023-02-17T10:44:52;3.13;;;2.10;;
55987;SDS011;67216;50.930;4.514;2023-02-17T10:47:22;4.15;;;2.03;;
55987;SDS011;67216;50.930;4.514;2023-02-17T10:49:52;3.17;;;2.13;;
55987;SDS011;67216;50.930;4.514;2023-02-17T10:52:20;5.90;;;2.38;;
55987;SDS011;67216;50.930;4.514;2023-02-17T10:54:53;2.95;;;2.00;;
55987;SDS011;67216;50.930;4.514;2023-02-17T10:57:20;4.63;;;2.10;;
55987;SDS011;67216;50.930;4.514;2023-02-17T10:59:48;3.53;;;2.20;;
55987;SDS011;67216;50.930;4.514;2023-02-17T11:04:44;5.15;;;2.20;;
55987;SDS011;67216;50.930;4.514;2023-02-17T11:09:46;4.53;;;2.08;;
55987;SDS011;67216;50.930;4.514;2023-02-17T11:12:20;3.47;;;1.60;;
55987;SDS011;67216;50.930;4.514;2023-02-17T11:14:52;3.08;;;1.60;;
55987;SDS011;67216;50.930;4.514;2023-02-17T11:17:27;4.47;;;1.90;;
55987;SDS011;67216;50.930;4.514;2023-02-17T11:20:08;2.55;;;1.95;;
55987;SDS011;67216;50.930;4.514;2023-02-17T11:22:41;3.95;;;1.88;;
55987;SDS011;67216;50.930;4.514;2023-02-17T11:25:23;3.08;;;1.80;;
55987;SDS011;67216;50.930;4.514;2023-02-17T11:27:56;2.67;;;2.03;;
55987;SDS011;67216;50.930;4.514;2023-02-17T11:30:27;2.97;;;1.90;;
55987;SDS011;67216;50.930;4.514;2023-02-17T11:32:55;6.53;;;1.95;;
55987;SDS011;67216;50.930;4.514;2023-02-17T11:38:02;3.35;;;1.85;;
55987;SDS011;67216;50.930;4.514;2023-02-17T11:40:35;3.80;;;1.80;;
55987;SDS011;67216;50.930;4.514;2023-02-17T11:43:02;5.68;;;1.73;;
55987;SDS011;67216;50.930;4.514;2023-02-17T11:45:40;4.45;;;1.63;;
55987;SDS011;67216;50.930;4.514;2023-02-17T11:48:21;2.78;;;1.50;;
55987;SDS011;67216;50.930;4.514;2023-02-17T11:51:07;2.65;;;1.20;;
55987;SDS011;67216;50.930;4.514;2023-02-17T11:54:22;2.70;;;1.20;;
55987;SDS011;67216;50.930;4.514;2023-02-17T12:08:11;2.10;;;0.63;;
55987;SDS011;67216;50.930;4.514;2023-02-17T12:19:13;2.45;;;0.70;;
55987;SDS011;67216;50.930;4.514;2023-02-17T12:33:03;3.08;;;0.63;;
55987;SDS011;67216;50.930;4.514;2023-02-17T12:35:59;2.72;;;0.88;;
55987;SDS011;67216;50.930;4.514;2023-02-17T12:38:32;3.47;;;0.70;;
55987;SDS011;67216;50.930;4.514;2023-02-17T12:43:38;2.28;;;0.90;;
55987;SDS011;67216;50.930;4.514;2023-02-17T12:46:14;1.67;;;0.60;;
55987;SDS011;67216;50.930;4.514;2023-02-17T12:48:55;1.80;;;0.70;;
55987;SDS011;67216;50.930;4.514;2023-02-17T12:54:50;1.38;;;0.70;;
55987;SDS011;67216;50.930;4.514;2023-02-17T12:57:47;0.90;;;0.50;;
55987;SDS011;67216;50.930;4.514;2023-02-17T13:03:12;2.75;;;0.75;;
55987;SDS011;67216;50.930;4.514;2023-02-17T13:06:01;2.45;;;0.55;;
55987;SDS011;67216;50.930;4.514;2023-02-17T13:08:39;1.98;;;0.50;;
55987;SDS011;67216;50.930;4.514;2023-02-17T13:11:11;4.88;;;0.82;;
55987;SDS011;67216;50.930;4.514;2023-02-17T13:13:49;1.83;;;0.80;;
55987;SDS011;67216;50.930;4.514;2023-02-17T13:16:15;2.05;;;0.70;;
55987;SDS011;67216;50.930;4.514;2023-02-17T13:18:44;3.67;;;0.73;;
55987;SDS011;67216;50.930;4.514;2023-02-17T13:24:02;2.60;;;0.60;;
55987;SDS011;67216;50.930;4.514;2023-02-17T13:26:42;0.85;;;0.60;;
55987;SDS011;67216;50.930;4.514;2023-02-17T13:34:36;3.50;;;0.82;;
55987;SDS011;67216;50.930;4.514;2023-02-17T13:37:17;3.92;;;0.80;;
55987;SDS011;67216;50.930;4.514;2023-02-17T13:39:43;4.28;;;0.80;;
55987;SDS011;67216;50.930;4.514;2023-02-17T13:44:58;2.85;;;0.70;;
55987;SDS011;67216;50.930;4.514;2023-02-17T13:47:28;3.30;;;0.80;;
55987;SDS011;67216;50.930;4.514;2023-02-17T13:49:59;3.65;;;1.05;;
55987;SDS011;67216;50.930;4.514;2023-02-17T13:52:28;3.90;;;0.80;;
55987;SDS011;67216;50.930;4.514;2023-02-17T13:57:33;2.70;;;1.00;;
55987;SDS011;67216;50.930;4.514;2023-02-17T14:02:56;2.03;;;0.77;;
55987;SDS011;67216;50.930;4.514;2023-02-17T14:05:42;2.15;;;0.77;;
55987;SDS011;67216;50.930;4.514;2023-02-17T14:08:13;3.42;;;0.63;;
55987;SDS011;67216;50.930;4.514;2023-02-17T14:10:44;1.15;;;0.60;;
55987;SDS011;67216;50.930;4.514;2023-02-17T14:13:13;2.60;;;0.70;;
55987;SDS011;67216;50.930;4.514;2023-02-17T14:15:50;4.20;;;0.90;;
55987;SDS011;67216;50.930;4.514;2023-02-17T14:18:37;4.93;;;0.63;;
55987;SDS011;67216;50.930;4.514;2023-02-17T14:21:11;2.45;;;0.70;;
55987;SDS011;67216;50.930;4.514;2023-02-17T14:23:51;2.50;;;0.73;;
55987;SDS011;67216;50.930;4.514;2023-02-17T14:29:03;1.63;;;0.77;;
55987;SDS011;67216;50.930;4.514;2023-02-17T14:34:06;3.63;;;0.90;;
55987;SDS011;67216;50.930;4.514;2023-02-17T14:36:52;3.67;;;1.00;;
55987;SDS011;67216;50.930;4.514;2023-02-17T14:39:17;4.28;;;0.95;;
55987;SDS011;67216;50.930;4.514;2023-02-17T14:41:43;4.10;;;0.77;;
55987;SDS011;67216;50.930;4.514;2023-02-17T14:44:11;2.83;;;0.75;;
55987;SDS011;67216;50.930;4.514;2023-02-17T14:46:37;2.92;;;0.82;;
55987;SDS011;67216;50.930;4.514;2023-02-17T14:49:03;1.50;;;0.80;;
55987;SDS011;67216;50.930;4.514;2023-02-17T14:51:34;4.22;;;0.98;;
55987;SDS011;67216;50.930;4.514;2023-02-17T14:54:02;2.92;;;1.20;;
55987;SDS011;67216;50.930;4.514;2023-02-17T14:56:35;2.50;;;0.80;;
55987;SDS011;67216;50.930;4.514;2023-02-17T14:59:04;2.78;;;0.90;;
55987;SDS011;67216;50.930;4.514;2023-02-17T15:01:30;3.15;;;1.20;;
55987;SDS011;67216;50.930;4.514;2023-02-17T15:03:59;2.33;;;0.90;;
55987;SDS011;67216;50.930;4.514;2023-02-17T15:06:29;2.25;;;0.90;;
55987;SDS011;67216;50.930;4.514;2023-02-17T15:09:12;3.65;;;1.08;;
55987;SDS011;67216;50.930;4.514;2023-02-17T15:11:40;2.75;;;0.80;;
55987;SDS011;67216;50.930;4.514;2023-02-17T15:14:15;2.72;;;1.00;;
55987;SDS011;67216;50.930;4.514;2023-02-17T15:16:43;2.33;;;1.15;;
55987;SDS011;67216;50.930;4.514;2023-02-17T15:19:12;3.78;;;1.25;;
55987;SDS011;67216;50.930;4.514;2023-02-17T15:21:42;3.65;;;1.08;;
55987;SDS011;67216;50.930;4.514;2023-02-17T15:24:18;4.90;;;1.60;;
55987;SDS011;67216;50.930;4.514;2023-02-17T15:26:47;7.03;;;1.20;;
55987;SDS011;67216;50.930;4.514;2023-02-17T15:29:23;3.85;;;1.17;;
55987;SDS011;67216;50.930;4.514;2023-02-17T15:31:52;4.73;;;1.13;;
55987;SDS011;67216;50.930;4.514;2023-02-17T15:34:20;4.95;;;1.55;;
55987;SDS011;67216;50.930;4.514;2023-02-17T15:39:17;4.53;;;1.30;;
55987;SDS011;67216;50.930;4.514;2023-02-17T15:41:51;5.00;;;1.27;;
55987;SDS011;67216;50.930;4.514;2023-02-17T15:44:25;3.33;;;1.27;;
55987;SDS011;67216;50.930;4.514;2023-02-17T15:47:01;3.78;;;1.27;;
55987;SDS011;67216;50.930;4.514;2023-02-17T15:49:27;3.17;;;1.27;;
55987;SDS011;67216;50.930;4.514;2023-02-17T15:51:53;2.97;;;1.33;;
55987;SDS011;67216;50.930;4.514;2023-02-17T15:54:19;3.65;;;1.20;;
55987;SDS011;67216;50.930;4.514;2023-02-17T15:56:46;5.82;;;1.60;;
55987;SDS011;67216;50.930;4.514;2023-02-17T15:59:17;4.07;;;1.42;;
55987;SDS011;67216;50.930;4.514;2023-02-17T16:01:46;3.95;;;1.50;;
55987;SDS011;67216;50.930;4.514;2023-02-17T16:04:14;5.82;;;2.05;;
55987;SDS011;67216;50.930;4.514;2023-02-17T16:06:41;3.92;;;1.75;;
55987;SDS011;67216;50.930;4.514;2023-02-17T16:09:08;3.20;;;1.77;;
55987;SDS011;67216;50.930;4.514;2023-02-17T16:11:40;3.28;;;1.80;;
55987;SDS011;67216;50.930;4.514;2023-02-17T16:14:36;5.80;;;2.00;;
55987;SDS011;67216;50.930;4.514;2023-02-17T16:17:04;4.50;;;2.25;;
55987;SDS011;67216;50.930;4.514;2023-02-17T16:19:42;5.35;;;2.13;;
55987;SDS011;67216;50.930;4.514;2023-02-17T16:22:08;8.40;;;2.90;;
55987;SDS011;67216;50.930;4.514;2023-02-17T16:24:34;5.22;;;2.60;;
55987;SDS011;67216;50.930;4.514;2023-02-17T16:27:01;7.75;;;3.03;;
55987;SDS011;67216;50.930;4.514;2023-02-17T16:29:28;5.43;;;3.08;;
55987;SDS011;67216;50.930;4.514;2023-02-17T16:31:54;7.75;;;3.28;;
55987;SDS011;67216;50.930;4.514;2023-02-17T16:34:22;8.75;;;3.90;;
55987;SDS011;67216;50.930;4.514;2023-02-17T16:36:49;9.00;;;4.38;;
55987;SDS011;67216;50.930;4.514;2023-02-17T16:39:19;10.60;;;5.30;;
55987;SDS011;67216;50.930;4.514;2023-02-17T16:41:46;9.30;;;4.60;;
55987;SDS011;67216;50.930;4.514;2023-02-17T16:44:12;9.63;;;4.47;;
55987;SDS011;67216;50.930;4.514;2023-02-17T16:46:47;9.65;;;5.25;;
55987;SDS011;67216;50.930;4.514;2023-02-17T16:49:16;8.15;;;5.22;;
55987;SDS011;67216;50.930;4.514;2023-02-17T16:51:47;9.02;;;5.28;;
55987;SDS011;67216;50.930;4.514;2023-02-17T16:54:14;6.30;;;4.80;;